Charlottetown, Prince Edward Island

11:24 PM AST on February 13, 2016 (GMT -0400)
Charlottetown | | Change Station
CLOSE
Current Station
Airport
Location: Charlottetown,
Elevation: 157 ft
Nearby Weather Stations

Elev 157 ft 46.29 °N, 63.13 °W | Updated 24 minutes ago

Light Snow
Light Snow Low Drifting Snow
16 °F
Feels Like 0 °F
N
17
Wind Variable Wind from NNE
Gusts 24 mph

Tomorrow is forecast to be nearly the same temperature as today.

Today
High -- | Low -- °F
--% Chance of Precip.
Yesterday
High -- | Low -- °F
Precip. -- in
Pressure 29.71 in
Visibility 3.0 miles
Clouds Overcast 2500 ft
Windchill 0 °F
Dew Point 10 °F
Humidity 79%
Rainfall 0.00 in
Snow Depth Not available.
7:19 AM 5:34 PM
Waxing Crescent, 37% visible
METAR CYYG 140300Z 02015G21KT 3SM -SN DRSN OVC025 M09/M12 A2970 RMK SN5SC3 SLP061
Pressure 29.71 in
Visibility 3.0 miles
Clouds Overcast 2500 ft
Windchill 0 °F
Dew Point 10 °F
Humidity 79%
Rainfall 0.00 in
Snow Depth Not available.
7:19 AM 5:34 PM
Waxing Crescent, 37% visible
METAR CYYG 140300Z 02015G21KT 3SM -SN DRSN OVC025 M09/M12 A2970 RMK SN5SC3 SLP061

10-Day Weather Forecast

No radar image for this location.
×

Almanac

Astronomy

Feb. 13, 2016 Rise Set
Actual Time
Civil Twilight
Nautical Twilight
Astronomical Twilight
Moon
Length of Visible Light
Length of Day
Tomorrow will be .
, % of the Moon is Illuminated

Today's Extremes

Country Highs Country Lows

Community

WunderPhotos

Upload Photos

1,892,738 photos uploaded!

WunderBlog® & News

Nearby

Air Quality

  Air Quality AQ Index Pollutant
Not available.

Snow Depth

Station Depth Elevation

Earthquake Activity

City Distance Mag. Time & Date
Minimum magnitude displayed is 2.5.

Coastal Water Temperatures

Place Temperature

Stations

Nearby Weather Stations

Station Location Temp. Windchill Dew Point Humidity Wind Precip. Elev Updated Type
                   

Watches & Warnings

There are currently no watches in effect.